createdAt,value
2023-04-16T00:01:06.366Z,98129.56
2023-04-16T00:04:09.405Z,98121.56
2023-04-16T00:07:11.980Z,98123.41
2023-04-16T00:10:14.924Z,98127.88
2023-04-16T00:13:17.817Z,98138.59
2023-04-16T00:16:20.720Z,98138.69
2023-04-16T00:19:23.249Z,98136.88
2023-04-16T00:22:26.278Z,98134.25
2023-04-16T00:25:28.837Z,98132.56
2023-04-16T00:28:31.625Z,98123.66
2023-04-16T00:31:34.286Z,98123.81
2023-04-16T00:34:38.888Z,98125.63
2023-04-16T00:37:41.480Z,98125.63
2023-04-16T00:40:44.544Z,98128.31
2023-04-16T00:43:47.088Z,98126.59
2023-04-16T00:46:50.643Z,98130.12
2023-04-16T00:49:53.175Z,98130.22
2023-04-16T00:52:56.802Z,98131.16
2023-04-16T00:55:59.510Z,98131.19
2023-04-16T00:59:02.671Z,98127.66
2023-04-16T01:02:05.695Z,98126.78
2023-04-16T01:05:09.267Z,98125.81
2023-04-16T01:08:17.597Z,98125.81
2023-04-16T01:11:21.006Z,98115.19
2023-04-16T01:14:23.505Z,98117.97
2023-04-16T01:17:26.358Z,98117.13
2023-04-16T01:20:29.607Z,98118.87
2023-04-16T01:23:32.513Z,98116.09
2023-04-16T01:26:35.088Z,98125.16
2023-04-16T01:29:38.606Z,98127.84
2023-04-16T01:32:41.278Z,98123.41
2023-04-16T01:35:44.090Z,98086.53
2023-04-16T01:38:46.712Z,98110.91
2023-04-16T01:41:49.871Z,98111.84
2023-04-16T01:44:52.375Z,98117.28
2023-04-16T01:47:55.293Z,98123.47
2023-04-16T01:50:58.577Z,98128.84
2023-04-16T01:54:01.723Z,98136.00
2023-04-16T01:57:04.391Z,98135.13
2023-04-16T02:00:08.725Z,98133.37
2023-04-16T02:03:21.542Z,98135.28
2023-04-16T02:06:24.845Z,98137.09
2023-04-16T02:09:27.431Z,98141.66
2023-04-16T02:12:31.153Z,98139.91
2023-04-16T02:15:33.801Z,98132.84
2023-04-16T02:18:36.840Z,98143.59
2023-04-16T02:21:41.754Z,98147.19
2023-04-16T02:24:44.356Z,98145.47
2023-04-16T02:27:47.361Z,98148.16
2023-04-16T02:30:51.158Z,98155.41
2023-04-16T02:33:54.589Z,98156.34
2023-04-16T02:36:58.380Z,98155.47
2023-04-16T02:40:01.383Z,98142.22
2023-04-16T02:43:04.600Z,98151.16
2023-04-16T02:46:07.599Z,98150.34
2023-04-16T02:49:10.788Z,98148.59
2023-04-16T02:52:15.548Z,98146.81
2023-04-16T02:55:18.280Z,98152.25
2023-04-16T02:58:22.099Z,98145.16
2023-04-16T03:01:24.624Z,98143.50
2023-04-16T03:04:27.591Z,98153.34
2023-04-16T03:07:30.268Z,98144.62
2023-04-16T03:10:33.328Z,98141.09
2023-04-16T03:13:36.304Z,98139.44
2023-04-16T03:16:39.126Z,98147.56
2023-04-16T03:19:41.742Z,98160.94
2023-04-16T03:22:44.737Z,98155.72
2023-04-16T03:25:48.592Z,98152.25
2023-04-16T03:28:51.933Z,98160.38
2023-04-16T03:31:54.544Z,98154.22
2023-04-16T03:34:58.124Z,98163.25
2023-04-16T03:38:01.114Z,98157.09
2023-04-16T03:41:04.213Z,98161.56
2023-04-16T03:44:07.211Z,98186.34
2023-04-16T03:47:10.508Z,98201.41
2023-04-16T03:50:13.822Z,98207.56
2023-04-16T03:53:17.114Z,98202.25
2023-04-16T03:56:19.764Z,98197.88
2023-04-16T03:59:22.827Z,98207.63
2023-04-16T04:02:26.433Z,98203.22
2023-04-16T04:05:29.387Z,98205.91
2023-04-16T04:08:34.031Z,98213.00
2023-04-16T04:11:38.260Z,98221.81
2023-04-16T04:14:40.849Z,98227.13
2023-04-16T04:17:43.864Z,98228.81
2023-04-16T04:20:46.787Z,98228.69
2023-04-16T04:23:49.931Z,98226.88
2023-04-16T04:26:52.427Z,98235.66
2023-04-16T04:29:55.385Z,98246.22
2023-04-16T04:32:58.405Z,98237.25
2023-04-16T04:36:01.629Z,98225.63
2023-04-16T04:39:04.409Z,98216.75
2023-04-16T04:42:08.703Z,98214.06
2023-04-16T04:45:11.698Z,98226.38
2023-04-16T04:48:16.604Z,98229.03
2023-04-16T04:51:19.724Z,98244.00
2023-04-16T04:54:22.841Z,98251.97
2023-04-16T04:57:25.539Z,98248.41
2023-04-16T05:00:29.337Z,98243.13
2023-04-16T05:03:32.333Z,98247.63
2023-04-16T05:06:35.137Z,98252.00
2023-04-16T05:09:38.019Z,98247.44
2023-04-16T05:12:41.374Z,98250.00
2023-04-16T05:15:45.061Z,98252.56
2023-04-16T05:18:47.890Z,98248.78
2023-04-16T05:21:50.459Z,98248.56
2023-04-16T05:24:53.404Z,98237.88
2023-04-16T05:27:55.999Z,98240.25
2023-04-16T05:30:58.925Z,98237.41
2023-04-16T05:34:01.409Z,98246.06
2023-04-16T05:37:04.219Z,98259.28
2023-04-16T05:40:07.560Z,98271.66
2023-04-16T05:43:10.508Z,98291.78
2023-04-16T05:46:13.203Z,98287.97
2023-04-16T05:49:18.722Z,98288.44
2023-04-16T05:52:21.432Z,98294.28
2023-04-16T05:55:24.284Z,98293.03
2023-04-16T05:58:26.896Z,98284.66
2023-04-16T06:01:29.916Z,98283.25
2023-04-16T06:04:32.735Z,98280.16
2023-04-16T06:07:35.227Z,98290.41
2023-04-16T06:10:38.099Z,98288.47
2023-04-16T06:13:40.672Z,98296.34
2023-04-16T06:16:43.471Z,98297.19
2023-04-16T06:19:46.350Z,98291.75
2023-04-16T06:22:49.202Z,98293.41
2023-04-16T06:25:51.826Z,98293.28
2023-04-16T06:28:54.604Z,98291.00
2023-04-16T06:31:57.234Z,98291.41
2023-04-16T06:35:00.218Z,98292.63
2023-04-16T06:38:02.818Z,98293.78
2023-04-16T06:41:05.672Z,98292.34
2023-04-16T06:44:08.500Z,98285.84
2023-04-16T06:47:11.473Z,98288.19
2023-04-16T06:50:14.149Z,98295.09
2023-04-16T06:53:17.033Z,98288.41
2023-04-16T06:56:19.619Z,98284.28
2023-04-16T06:59:22.945Z,98279.03
2023-04-16T07:02:25.999Z,98282.72
2023-04-16T07:05:29.111Z,98273.13
2023-04-16T07:08:31.911Z,98272.16
2023-04-16T07:11:35.652Z,98275.84
2023-04-16T07:14:38.286Z,98276.97
2023-04-16T07:17:41.273Z,98291.75
2023-04-16T07:20:43.858Z,98285.66
2023-04-16T07:23:46.709Z,98284.03
2023-04-16T07:26:49.161Z,98290.56
2023-04-16T07:29:51.951Z,98298.97
2023-04-16T07:32:55.837Z,98293.47
2023-04-16T07:35:58.718Z,98290.62
2023-04-16T07:39:01.666Z,98290.62
2023-04-16T07:42:04.468Z,98290.12
2023-04-16T07:45:07.541Z,98296.59
2023-04-16T07:48:10.988Z,98295.94
2023-04-16T07:51:14.117Z,98294.13
2023-04-16T07:54:17.481Z,98289.56
2023-04-16T07:57:20.547Z,98300.94
2023-04-16T08:00:23.353Z,98302.19
2023-04-16T08:03:26.657Z,98295.22
2023-04-16T08:06:29.325Z,98297.41
2023-04-16T08:09:32.232Z,98298.81
2023-04-16T08:12:35.376Z,98292.28
2023-04-16T08:15:38.259Z,98297.44
2023-04-16T08:18:40.840Z,98297.75
2023-04-16T08:21:43.999Z,98294.00
2023-04-16T08:24:46.782Z,98292.41
2023-04-16T08:27:49.634Z,98296.19
2023-04-16T08:30:52.176Z,98301.16
2023-04-16T08:33:54.988Z,98302.53
2023-04-16T08:36:57.541Z,98298.94
2023-04-16T08:40:01.189Z,98301.13
2023-04-16T08:43:06.351Z,98305.69
2023-04-16T08:46:09.567Z,98303.59
2023-04-16T08:49:18.044Z,98317.75
2023-04-16T08:52:23.548Z,98326.22
2023-04-16T08:55:36.544Z,98330.34
2023-04-16T08:58:39.885Z,98335.03
2023-04-16T09:01:42.715Z,98332.37
2023-04-16T09:04:47.220Z,98330.66
2023-04-16T09:07:49.825Z,98329.44
2023-04-16T09:10:53.140Z,98332.22
2023-04-16T09:13:56.480Z,98313.47
2023-04-16T09:17:02.541Z,98330.66
2023-04-16T09:20:08.710Z,98338.59
2023-04-16T09:23:15.093Z,98326.31
2023-04-16T09:26:17.901Z,98340.25
2023-04-16T09:29:36.958Z,98342.41
2023-04-16T09:32:39.480Z,98344.34
2023-04-16T09:35:47.625Z,98356.81
2023-04-16T09:38:54.502Z,98342.91
2023-04-16T09:41:58.962Z,98363.13
2023-04-16T09:45:04.923Z,98362.13
2023-04-16T09:48:08.651Z,98357.06
2023-04-16T09:51:11.246Z,98356.59
2023-04-16T09:54:14.611Z,98373.53
2023-04-16T09:57:22.183Z,98376.38
2023-04-16T10:00:25.158Z,98376.16
2023-04-16T10:03:32.157Z,98377.03
2023-04-16T10:06:34.804Z,98377.19
2023-04-16T10:09:38.723Z,98375.97
2023-04-16T10:12:41.704Z,98381.03
2023-04-16T10:15:44.609Z,98378.41
2023-04-16T10:18:47.490Z,98379.72
2023-04-16T10:21:52.028Z,98378.53
2023-04-16T10:24:54.882Z,98374.66
2023-04-16T10:27:57.958Z,98367.25
2023-04-16T10:31:02.164Z,98360.38
2023-04-16T10:34:05.748Z,98363.75
2023-04-16T10:37:08.449Z,98362.34
2023-04-16T10:40:24.407Z,98360.44
2023-04-16T10:43:28.953Z,98359.47
2023-04-16T10:46:33.597Z,98351.81
2023-04-16T10:49:36.963Z,98347.72
2023-04-16T10:52:40.293Z,98350.38
2023-04-16T10:55:56.812Z,98345.13
2023-04-16T10:58:59.839Z,98346.53
2023-04-16T11:02:08.645Z,98350.81
2023-04-16T11:05:12.779Z,98353.06
2023-04-16T11:08:18.757Z,98345.69
2023-04-16T11:11:22.512Z,98351.28
2023-04-16T11:14:25.175Z,98342.44
2023-04-16T11:17:34.183Z,98343.44
2023-04-16T11:20:41.554Z,98337.69
2023-04-16T11:23:52.476Z,98341.66
2023-04-16T11:26:56.463Z,98331.13
2023-04-16T11:30:11.960Z,98335.28
2023-04-16T11:33:14.790Z,98335.19
2023-04-16T11:36:17.771Z,98339.44
2023-04-16T11:39:24.638Z,98333.47
2023-04-16T11:42:28.407Z,98338.69
2023-04-16T11:45:31.231Z,98328.12
2023-04-16T11:48:50.829Z,98332.03
2023-04-16T11:51:53.579Z,98330.41
2023-04-16T11:54:57.509Z,98307.00
2023-04-16T11:58:12.007Z,98326.03
2023-04-16T12:01:20.392Z,98322.25
2023-04-16T12:04:25.662Z,98327.13
2023-04-16T12:07:28.350Z,98317.81
2023-04-16T12:10:35.181Z,98323.75
2023-04-16T12:13:40.272Z,98320.06
2023-04-16T12:16:43.279Z,98323.44
2023-04-16T12:19:51.643Z,98318.13
2023-04-16T12:22:57.060Z,98300.38
2023-04-16T12:26:10.459Z,98311.06
2023-04-16T12:29:25.179Z,98316.87
2023-04-16T12:32:27.669Z,98307.41
2023-04-16T12:35:32.122Z,98306.03
2023-04-16T12:38:34.789Z,98304.19
2023-04-16T12:41:39.218Z,98300.03
2023-04-16T12:44:41.840Z,98306.66
2023-04-16T12:47:44.725Z,98303.38
2023-04-16T12:50:47.584Z,98302.16
2023-04-16T12:53:50.698Z,98287.78
2023-04-16T12:56:53.558Z,98293.66
2023-04-16T12:59:57.523Z,98290.47
2023-04-16T13:03:00.410Z,98287.50
2023-04-16T13:06:04.081Z,98291.47
2023-04-16T13:09:06.868Z,98284.47
2023-04-16T13:12:09.808Z,98282.66
2023-04-16T13:15:12.944Z,98282.34
2023-04-16T13:18:15.952Z,98276.31
2023-04-16T13:21:18.784Z,98267.66
2023-04-16T13:24:23.206Z,98278.84
2023-04-16T13:27:25.820Z,98266.69
2023-04-16T13:30:33.444Z,98271.69
2023-04-16T13:33:36.404Z,98270.84
2023-04-16T13:36:39.268Z,98263.53
2023-04-16T13:39:42.170Z,98258.66
2023-04-16T13:42:44.985Z,98259.62
2023-04-16T13:45:49.649Z,98251.91
2023-04-16T13:48:52.770Z,98242.63
2023-04-16T13:51:55.787Z,98250.59
2023-04-16T13:55:00.138Z,98252.69
2023-04-16T13:58:03.166Z,98251.62
2023-04-16T14:01:06.085Z,98259.66
2023-04-16T14:04:09.072Z,98246.38
2023-04-16T14:07:11.858Z,98242.09
2023-04-16T14:10:14.773Z,98245.78
2023-04-16T14:13:17.316Z,98249.25
2023-04-16T14:16:20.447Z,98245.94
2023-04-16T14:19:23.333Z,98246.03
2023-04-16T14:22:26.356Z,98246.28
2023-04-16T14:25:28.989Z,98251.28
2023-04-16T14:28:32.061Z,98242.69
2023-04-16T14:31:35.038Z,98246.06
2023-04-16T14:34:37.978Z,98243.94
2023-04-16T14:37:41.384Z,98237.78
2023-04-16T14:40:44.103Z,98231.16
2023-04-16T14:43:46.930Z,98233.78
2023-04-16T14:46:49.703Z,98243.22
2023-04-16T14:49:52.327Z,98241.91
2023-04-16T14:52:55.898Z,98239.66
2023-04-16T14:55:59.084Z,98221.50
2023-04-16T14:59:02.055Z,98227.28
2023-04-16T15:02:04.797Z,98224.31
2023-04-16T15:05:10.171Z,98223.03
2023-04-16T15:08:12.726Z,98229.44
2023-04-16T15:11:15.642Z,98222.94
2023-04-16T15:14:18.747Z,98209.50
2023-04-16T15:17:21.720Z,98207.88
2023-04-16T15:20:24.501Z,98202.41
2023-04-16T15:23:27.722Z,98211.09
2023-04-16T15:26:30.714Z,98213.25
2023-04-16T15:29:34.121Z,98215.81
2023-04-16T15:32:36.739Z,98207.53
2023-04-16T15:35:41.368Z,98215.00
2023-04-16T15:38:44.125Z,98217.91
2023-04-16T15:42:00.783Z,98218.34
2023-04-16T15:45:05.356Z,98216.13
2023-04-16T15:48:11.619Z,98213.34
2023-04-16T15:51:15.004Z,98208.78
2023-04-16T15:54:20.776Z,98206.03
2023-04-16T15:57:23.881Z,98213.69
2023-04-16T16:00:27.486Z,98212.44
2023-04-16T16:03:32.212Z,98211.69
2023-04-16T16:06:35.303Z,98216.22
2023-04-16T16:09:38.600Z,98215.16
2023-04-16T16:12:41.476Z,98219.22
2023-04-16T16:15:44.831Z,98224.44
2023-04-16T16:18:47.768Z,98217.75
2023-04-16T16:21:50.601Z,98216.28
2023-04-16T16:24:55.733Z,98223.16
2023-04-16T16:27:59.471Z,98223.25
2023-04-16T16:31:03.994Z,98227.13
2023-04-16T16:34:07.002Z,98218.03
2023-04-16T16:37:09.651Z,98227.13
2023-04-16T16:40:12.784Z,98223.63
2023-04-16T16:43:15.607Z,98222.28
2023-04-16T16:46:19.770Z,98225.16
2023-04-16T16:49:22.597Z,98224.63
2023-04-16T16:52:26.123Z,98232.06
2023-04-16T16:55:28.811Z,98231.59
2023-04-16T16:58:31.670Z,98235.41
2023-04-16T17:01:34.925Z,98234.94
2023-04-16T17:04:38.286Z,98235.19
2023-04-16T17:07:41.312Z,98232.16
2023-04-16T17:10:44.579Z,98227.91
2023-04-16T17:13:47.622Z,98225.56
2023-04-16T17:16:50.718Z,98229.59
2023-04-16T17:19:54.051Z,98230.91
2023-04-16T17:22:57.179Z,98224.28
2023-04-16T17:26:00.025Z,98233.16
2023-04-16T17:29:04.451Z,98233.72
2023-04-16T17:32:07.031Z,98229.50
2023-04-16T17:35:10.948Z,98233.44
2023-04-16T17:38:13.710Z,98243.66
2023-04-16T17:41:16.944Z,98224.47
2023-04-16T17:44:20.028Z,98243.19
2023-04-16T17:47:23.169Z,98237.00
2023-04-16T17:50:27.704Z,98228.22
2023-04-16T17:53:30.800Z,98237.28
2023-04-16T17:56:33.622Z,98245.56
2023-04-16T17:59:36.938Z,98244.03
2023-04-16T18:02:43.622Z,98257.81
2023-04-16T18:05:46.519Z,98255.34
2023-04-16T18:08:49.300Z,98252.00
2023-04-16T18:11:52.499Z,98242.34
2023-04-16T18:14:55.328Z,98237.22
2023-04-16T18:17:58.370Z,98237.62
2023-04-16T18:21:01.291Z,98253.84
2023-04-16T18:24:04.216Z,98250.25
2023-04-16T18:27:07.338Z,98246.84
2023-04-16T18:30:20.173Z,98262.16
2023-04-16T18:33:52.596Z,98258.75
2023-04-16T18:36:52.439Z,98259.00
2023-04-16T18:39:57.774Z,98256.53
2023-04-16T18:43:01.401Z,98250.63
2023-04-16T18:46:04.240Z,98262.50
2023-04-16T18:49:07.720Z,98262.69
2023-04-16T18:52:10.654Z,98262.06
2023-04-16T18:55:14.663Z,98259.56
2023-04-16T18:58:18.335Z,98265.31
2023-04-16T19:01:21.642Z,98263.72
2023-04-16T19:04:24.375Z,98230.09
2023-04-16T19:07:27.354Z,98266.03
2023-04-16T19:10:30.370Z,98258.94
2023-04-16T19:13:33.876Z,98263.72
2023-04-16T19:16:38.808Z,98266.56
2023-04-16T19:19:42.660Z,98255.22
2023-04-16T19:22:46.237Z,98253.72
2023-04-16T19:25:49.549Z,98257.38
2023-04-16T19:28:52.434Z,98256.66
2023-04-16T19:31:56.113Z,98254.34
2023-04-16T19:34:59.182Z,98242.78
2023-04-16T19:38:02.266Z,98246.41
2023-04-16T19:41:05.024Z,98250.22
2023-04-16T19:44:08.265Z,98242.13
2023-04-16T19:47:12.136Z,98249.41
2023-04-16T19:50:15.957Z,98248.63
2023-04-16T19:53:18.832Z,98248.87
2023-04-16T19:56:22.350Z,98245.47
2023-04-16T19:59:28.078Z,98249.13
2023-04-16T20:02:31.728Z,98244.59
2023-04-16T20:05:35.222Z,98201.66
2023-04-16T20:08:39.262Z,98236.44
2023-04-16T20:11:42.777Z,98234.78
2023-04-16T20:14:45.326Z,98233.88
2023-04-16T20:17:48.433Z,98232.09
2023-04-16T20:20:51.373Z,98233.75
2023-04-16T20:23:54.349Z,98240.16
2023-04-16T20:26:56.965Z,98235.72
2023-04-16T20:30:00.954Z,98239.38
2023-04-16T20:33:03.997Z,98244.84
2023-04-16T20:36:08.071Z,98238.66
2023-04-16T20:39:11.716Z,98235.31
2023-04-16T20:42:14.548Z,98237.28
2023-04-16T20:45:17.109Z,98230.91
2023-04-16T20:48:21.422Z,98230.13
2023-04-16T20:51:24.156Z,98225.69
2023-04-16T20:54:27.258Z,98230.13
2023-04-16T20:57:32.115Z,98232.81
2023-04-16T21:00:35.292Z,98230.28
2023-04-16T21:03:38.161Z,98226.81
2023-04-16T21:06:43.046Z,98230.28
2023-04-16T21:09:47.933Z,98224.00
2023-04-16T21:12:50.978Z,98234.97
2023-04-16T21:15:53.527Z,98231.53
2023-04-16T21:18:58.019Z,98229.84
2023-04-16T21:22:02.587Z,98231.91
2023-04-16T21:25:05.904Z,98231.19
2023-04-16T21:28:08.638Z,98231.41
2023-04-16T21:31:11.746Z,98221.78
2023-04-16T21:34:14.370Z,98223.03
2023-04-16T21:37:17.281Z,98220.56
2023-04-16T21:40:19.960Z,98206.03
2023-04-16T21:43:23.586Z,98215.75
2023-04-16T21:46:26.780Z,98222.22
2023-04-16T21:49:30.072Z,98216.13
2023-04-16T21:52:32.958Z,98221.56
2023-04-16T21:55:36.347Z,98210.91
2023-04-16T21:58:38.871Z,98211.91
2023-04-16T22:01:42.283Z,98213.59
2023-04-16T22:04:45.158Z,98205.53
2023-04-16T22:07:47.768Z,98208.22
2023-04-16T22:10:50.834Z,98206.44
2023-04-16T22:13:57.661Z,98207.47
2023-04-16T22:17:01.761Z,98206.69
2023-04-16T22:20:09.397Z,98203.09
2023-04-16T22:23:12.629Z,98205.78
2023-04-16T22:26:15.122Z,98204.97
2023-04-16T22:29:17.950Z,98199.59
2023-04-16T22:32:20.819Z,98186.31
2023-04-16T22:35:23.688Z,98189.88
2023-04-16T22:38:26.245Z,98193.56
2023-04-16T22:41:29.321Z,98185.47
2023-04-16T22:44:31.894Z,98188.28
2023-04-16T22:47:34.785Z,98189.13
2023-04-16T22:50:37.353Z,98186.50
2023-04-16T22:53:40.420Z,98180.28
2023-04-16T22:56:43.039Z,98165.28
2023-04-16T22:59:45.830Z,98174.09
2023-04-16T23:02:48.420Z,98171.41
2023-04-16T23:05:51.287Z,98166.94
2023-04-16T23:08:54.118Z,98167.00
2023-04-16T23:11:57.482Z,98168.91
2023-04-16T23:15:00.763Z,98165.50
2023-04-16T23:18:03.690Z,98167.25
2023-04-16T23:21:06.238Z,98162.81
2023-04-16T23:24:09.474Z,98159.19
2023-04-16T23:27:12.055Z,98142.44
2023-04-16T23:30:15.086Z,98158.38
2023-04-16T23:33:17.776Z,98144.13
2023-04-16T23:36:20.816Z,98145.06
2023-04-16T23:39:23.974Z,98145.06
2023-04-16T23:42:26.797Z,98148.69
2023-04-16T23:45:29.412Z,98143.31
2023-04-16T23:48:32.490Z,98120.38
2023-04-16T23:51:35.090Z,98144.25
2023-04-16T23:54:38.283Z,98133.50
2023-04-16T23:57:40.738Z,98133.50
